sensor_id;sensor_type;location;lat;lon;timestamp;temperature;humidity
15172;DHT22;7686;52.184;9.280;2023-04-29T00:00:03;28.60;31.80
15172;DHT22;7686;52.184;9.280;2023-04-29T00:02:32;28.60;31.80
15172;DHT22;7686;52.184;9.280;2023-04-29T00:04:59;28.60;31.80
15172;DHT22;7686;52.184;9.280;2023-04-29T00:07:26;28.60;32.50
15172;DHT22;7686;52.184;9.280;2023-04-29T00:09:53;28.50;31.80
15172;DHT22;7686;52.184;9.280;2023-04-29T00:12:20;28.50;31.80
15172;DHT22;7686;52.184;9.280;2023-04-29T00:14:46;28.60;31.90
15172;DHT22;7686;52.184;9.280;2023-04-29T00:17:13;28.50;31.80
15172;DHT22;7686;52.184;9.280;2023-04-29T00:19:40;28.50;31.90
15172;DHT22;7686;52.184;9.280;2023-04-29T00:22:07;28.50;31.90
15172;DHT22;7686;52.184;9.280;2023-04-29T00:24:33;28.40;31.80
15172;DHT22;7686;52.184;9.280;2023-04-29T00:27:00;28.40;31.90
15172;DHT22;7686;52.184;9.280;2023-04-29T00:29:28;28.40;31.90
15172;DHT22;7686;52.184;9.280;2023-04-29T00:31:54;28.40;31.90
15172;DHT22;7686;52.184;9.280;2023-04-29T00:34:21;28.40;31.90
15172;DHT22;7686;52.184;9.280;2023-04-29T00:36:48;28.40;32.00
15172;DHT22;7686;52.184;9.280;2023-04-29T00:39:14;28.40;32.00
15172;DHT22;7686;52.184;9.280;2023-04-29T00:41:41;28.40;32.00
15172;DHT22;7686;52.184;9.280;2023-04-29T00:44:08;28.30;32.00
15172;DHT22;7686;52.184;9.280;2023-04-29T00:46:35;28.30;32.00
15172;DHT22;7686;52.184;9.280;2023-04-29T00:49:02;28.30;32.00
15172;DHT22;7686;52.184;9.280;2023-04-29T00:51:29;28.30;32.00
15172;DHT22;7686;52.184;9.280;2023-04-29T00:53:56;28.30;32.00
15172;DHT22;7686;52.184;9.280;2023-04-29T00:56:23;28.30;32.10
15172;DHT22;7686;52.184;9.280;2023-04-29T00:58:50;28.30;32.10
15172;DHT22;7686;52.184;9.280;2023-04-29T01:01:18;28.20;32.00
15172;DHT22;7686;52.184;9.280;2023-04-29T01:03:45;28.20;32.10
15172;DHT22;7686;52.184;9.280;2023-04-29T01:06:31;28.20;32.10
15172;DHT22;7686;52.184;9.280;2023-04-29T01:09:25;28.20;32.10
15172;DHT22;7686;52.184;9.280;2023-04-29T01:12:07;28.20;32.10
15172;DHT22;7686;52.184;9.280;2023-04-29T01:14:35;28.20;32.10
15172;DHT22;7686;52.184;9.280;2023-04-29T01:17:10;28.20;32.10
15172;DHT22;7686;52.184;9.280;2023-04-29T01:19:47;28.10;32.10
15172;DHT22;7686;52.184;9.280;2023-04-29T01:22:15;28.10;32.10
15172;DHT22;7686;52.184;9.280;2023-04-29T01:24:48;28.20;32.20
15172;DHT22;7686;52.184;9.280;2023-04-29T01:30:41;28.10;32.20
15172;DHT22;7686;52.184;9.280;2023-04-29T01:36:32;28.00;32.10
15172;DHT22;7686;52.184;9.280;2023-04-29T01:39:11;28.00;32.20
15172;DHT22;7686;52.184;9.280;2023-04-29T01:41:44;28.10;32.30
15172;DHT22;7686;52.184;9.280;2023-04-29T01:44:23;28.00;32.30
15172;DHT22;7686;52.184;9.280;2023-04-29T01:46:51;28.00;32.20
15172;DHT22;7686;52.184;9.280;2023-04-29T01:49:26;28.00;32.20
15172;DHT22;7686;52.184;9.280;2023-04-29T01:51:53;28.00;32.30
15172;DHT22;7686;52.184;9.280;2023-04-29T01:54:20;28.00;32.30
15172;DHT22;7686;52.184;9.280;2023-04-29T01:56:47;28.00;32.30
15172;DHT22;7686;52.184;9.280;2023-04-29T01:59:14;27.90;32.30
15172;DHT22;7686;52.184;9.280;2023-04-29T02:01:41;28.00;32.30
15172;DHT22;7686;52.184;9.280;2023-04-29T02:04:07;28.00;32.30
15172;DHT22;7686;52.184;9.280;2023-04-29T02:06:34;27.90;32.30
15172;DHT22;7686;52.184;9.280;2023-04-29T02:09:00;27.90;32.30
15172;DHT22;7686;52.184;9.280;2023-04-29T02:11:27;28.00;32.40
15172;DHT22;7686;52.184;9.280;2023-04-29T02:13:54;28.00;32.40
15172;DHT22;7686;52.184;9.280;2023-04-29T02:16:21;27.90;32.40
15172;DHT22;7686;52.184;9.280;2023-04-29T02:18:48;27.90;32.30
15172;DHT22;7686;52.184;9.280;2023-04-29T02:21:15;27.90;32.40
15172;DHT22;7686;52.184;9.280;2023-04-29T02:23:41;27.90;32.30
15172;DHT22;7686;52.184;9.280;2023-04-29T02:26:08;27.80;32.30
15172;DHT22;7686;52.184;9.280;2023-04-29T02:28:36;27.80;32.30
15172;DHT22;7686;52.184;9.280;2023-04-29T02:31:02;27.80;32.30
15172;DHT22;7686;52.184;9.280;2023-04-29T02:33:29;27.80;32.30
15172;DHT22;7686;52.184;9.280;2023-04-29T02:35:55;27.80;32.30
15172;DHT22;7686;52.184;9.280;2023-04-29T02:38:22;27.80;32.30
15172;DHT22;7686;52.184;9.280;2023-04-29T02:40:49;27.80;32.30
15172;DHT22;7686;52.184;9.280;2023-04-29T02:43:15;27.80;32.30
15172;DHT22;7686;52.184;9.280;2023-04-29T02:45:42;27.80;32.40
15172;DHT22;7686;52.184;9.280;2023-04-29T02:48:09;27.80;32.30
15172;DHT22;7686;52.184;9.280;2023-04-29T02:50:35;27.80;32.40
15172;DHT22;7686;52.184;9.280;2023-04-29T02:53:02;27.80;32.40
15172;DHT22;7686;52.184;9.280;2023-04-29T02:55:28;27.80;32.40
15172;DHT22;7686;52.184;9.280;2023-04-29T02:57:55;27.70;32.30
15172;DHT22;7686;52.184;9.280;2023-04-29T03:00:22;27.70;32.30
15172;DHT22;7686;52.184;9.280;2023-04-29T03:02:49;27.70;32.30
15172;DHT22;7686;52.184;9.280;2023-04-29T03:05:16;27.70;32.30
15172;DHT22;7686;52.184;9.280;2023-04-29T03:07:42;27.70;32.40
15172;DHT22;7686;52.184;9.280;2023-04-29T03:10:09;27.70;32.40
15172;DHT22;7686;52.184;9.280;2023-04-29T03:12:37;27.70;32.40
15172;DHT22;7686;52.184;9.280;2023-04-29T03:15:06;27.70;32.40
15172;DHT22;7686;52.184;9.280;2023-04-29T03:17:33;27.70;32.40
15172;DHT22;7686;52.184;9.280;2023-04-29T03:20:00;27.70;32.40
15172;DHT22;7686;52.184;9.280;2023-04-29T03:22:27;27.70;32.40
15172;DHT22;7686;52.184;9.280;2023-04-29T03:24:53;27.70;32.40
15172;DHT22;7686;52.184;9.280;2023-04-29T03:27:20;27.70;32.40
15172;DHT22;7686;52.184;9.280;2023-04-29T03:29:46;27.70;32.40
15172;DHT22;7686;52.184;9.280;2023-04-29T03:32:13;27.70;32.40
15172;DHT22;7686;52.184;9.280;2023-04-29T03:34:40;27.60;32.40
15172;DHT22;7686;52.184;9.280;2023-04-29T03:37:07;27.60;32.40
15172;DHT22;7686;52.184;9.280;2023-04-29T03:39:34;27.60;32.40
15172;DHT22;7686;52.184;9.280;2023-04-29T03:42:00;27.60;32.40
15172;DHT22;7686;52.184;9.280;2023-04-29T03:44:28;27.60;32.40
15172;DHT22;7686;52.184;9.280;2023-04-29T03:46:55;27.60;32.40
15172;DHT22;7686;52.184;9.280;2023-04-29T03:49:21;27.60;32.40
15172;DHT22;7686;52.184;9.280;2023-04-29T03:51:49;27.60;32.40
15172;DHT22;7686;52.184;9.280;2023-04-29T03:54:15;27.60;32.50
15172;DHT22;7686;52.184;9.280;2023-04-29T03:56:42;27.60;32.50
15172;DHT22;7686;52.184;9.280;2023-04-29T03:59:09;27.60;32.50
15172;DHT22;7686;52.184;9.280;2023-04-29T04:01:35;27.60;32.50
15172;DHT22;7686;52.184;9.280;2023-04-29T04:04:02;27.60;32.50
15172;DHT22;7686;52.184;9.280;2023-04-29T04:06:29;27.60;32.50
15172;DHT22;7686;52.184;9.280;2023-04-29T04:08:57;27.60;32.50
15172;DHT22;7686;52.184;9.280;2023-04-29T04:11:23;27.50;32.50
15172;DHT22;7686;52.184;9.280;2023-04-29T04:13:50;27.50;32.50
15172;DHT22;7686;52.184;9.280;2023-04-29T04:16:17;27.50;32.50
15172;DHT22;7686;52.184;9.280;2023-04-29T04:18:43;27.50;32.50
15172;DHT22;7686;52.184;9.280;2023-04-29T04:21:11;27.50;32.50
15172;DHT22;7686;52.184;9.280;2023-04-29T04:23:38;27.50;32.50
15172;DHT22;7686;52.184;9.280;2023-04-29T04:26:08;27.50;32.60
15172;DHT22;7686;52.184;9.280;2023-04-29T04:28:34;27.50;32.50
15172;DHT22;7686;52.184;9.280;2023-04-29T04:31:01;27.50;32.50
15172;DHT22;7686;52.184;9.280;2023-04-29T04:33:27;27.50;32.60
15172;DHT22;7686;52.184;9.280;2023-04-29T04:35:54;27.50;32.50
15172;DHT22;7686;52.184;9.280;2023-04-29T04:38:21;27.50;32.60
15172;DHT22;7686;52.184;9.280;2023-04-29T04:40:51;27.50;32.60
15172;DHT22;7686;52.184;9.280;2023-04-29T04:43:17;27.50;32.60
15172;DHT22;7686;52.184;9.280;2023-04-29T04:45:44;27.40;32.50
15172;DHT22;7686;52.184;9.280;2023-04-29T04:48:11;27.50;32.60
15172;DHT22;7686;52.184;9.280;2023-04-29T04:50:37;27.40;32.50
15172;DHT22;7686;52.184;9.280;2023-04-29T04:53:04;27.50;32.60
15172;DHT22;7686;52.184;9.280;2023-04-29T04:55:31;27.40;32.50
15172;DHT22;7686;52.184;9.280;2023-04-29T04:57:59;27.40;32.50
15172;DHT22;7686;52.184;9.280;2023-04-29T05:00:25;27.40;32.50
15172;DHT22;7686;52.184;9.280;2023-04-29T05:02:52;27.40;32.60
15172;DHT22;7686;52.184;9.280;2023-04-29T05:05:19;27.40;32.60
15172;DHT22;7686;52.184;9.280;2023-04-29T05:07:46;27.40;32.60
15172;DHT22;7686;52.184;9.280;2023-04-29T05:10:13;27.40;32.60
15172;DHT22;7686;52.184;9.280;2023-04-29T05:12:39;27.40;32.60
15172;DHT22;7686;52.184;9.280;2023-04-29T05:15:07;27.40;32.60
15172;DHT22;7686;52.184;9.280;2023-04-29T05:17:33;27.40;32.60
15172;DHT22;7686;52.184;9.280;2023-04-29T05:20:01;27.40;32.60
15172;DHT22;7686;52.184;9.280;2023-04-29T05:22:28;27.40;32.60
15172;DHT22;7686;52.184;9.280;2023-04-29T05:24:55;27.40;32.70
15172;DHT22;7686;52.184;9.280;2023-04-29T05:27:28;27.30;32.60
15172;DHT22;7686;52.184;9.280;2023-04-29T05:29:55;27.40;32.70
15172;DHT22;7686;52.184;9.280;2023-04-29T05:32:22;27.40;32.80
15172;DHT22;7686;52.184;9.280;2023-04-29T05:34:48;27.40;32.70
15172;DHT22;7686;52.184;9.280;2023-04-29T05:37:15;27.40;32.70
15172;DHT22;7686;52.184;9.280;2023-04-29T05:39:42;27.40;32.80
15172;DHT22;7686;52.184;9.280;2023-04-29T05:42:09;27.40;32.80
15172;DHT22;7686;52.184;9.280;2023-04-29T05:44:35;27.40;32.80
15172;DHT22;7686;52.184;9.280;2023-04-29T05:47:02;27.40;32.70
15172;DHT22;7686;52.184;9.280;2023-04-29T05:49:29;27.40;32.80
15172;DHT22;7686;52.184;9.280;2023-04-29T05:51:55;27.40;32.80
15172;DHT22;7686;52.184;9.280;2023-04-29T05:54:22;27.40;32.80
15172;DHT22;7686;52.184;9.280;2023-04-29T05:56:49;27.40;32.80
15172;DHT22;7686;52.184;9.280;2023-04-29T05:59:15;27.40;32.80
15172;DHT22;7686;52.184;9.280;2023-04-29T06:01:42;27.40;32.80
15172;DHT22;7686;52.184;9.280;2023-04-29T06:04:08;27.40;32.80
15172;DHT22;7686;52.184;9.280;2023-04-29T06:06:35;27.40;32.80
15172;DHT22;7686;52.184;9.280;2023-04-29T06:09:02;27.40;32.80
15172;DHT22;7686;52.184;9.280;2023-04-29T06:11:36;27.40;32.80
15172;DHT22;7686;52.184;9.280;2023-04-29T06:14:02;27.50;32.90
15172;DHT22;7686;52.184;9.280;2023-04-29T06:16:29;27.50;32.90
15172;DHT22;7686;52.184;9.280;2023-04-29T06:18:56;27.40;32.80
15172;DHT22;7686;52.184;9.280;2023-04-29T06:21:22;27.40;32.90
15172;DHT22;7686;52.184;9.280;2023-04-29T06:23:49;27.40;32.90
15172;DHT22;7686;52.184;9.280;2023-04-29T06:26:16;27.40;32.80
15172;DHT22;7686;52.184;9.280;2023-04-29T06:28:42;27.40;32.80
15172;DHT22;7686;52.184;9.280;2023-04-29T06:31:09;27.40;32.90
15172;DHT22;7686;52.184;9.280;2023-04-29T06:33:36;27.40;33.60
15172;DHT22;7686;52.184;9.280;2023-04-29T06:36:03;27.40;32.90
15172;DHT22;7686;52.184;9.280;2023-04-29T06:38:30;27.50;32.90
15172;DHT22;7686;52.184;9.280;2023-04-29T06:40:56;27.50;32.90
15172;DHT22;7686;52.184;9.280;2023-04-29T06:43:26;27.50;32.90
15172;DHT22;7686;52.184;9.280;2023-04-29T06:45:53;27.40;32.80
15172;DHT22;7686;52.184;9.280;2023-04-29T06:48:20;27.40;32.90
15172;DHT22;7686;52.184;9.280;2023-04-29T06:53:17;27.50;33.00
15172;DHT22;7686;52.184;9.280;2023-04-29T06:55:43;27.40;32.90
15172;DHT22;7686;52.184;9.280;2023-04-29T06:58:12;27.50;32.90
15172;DHT22;7686;52.184;9.280;2023-04-29T07:00:39;27.50;33.00
15172;DHT22;7686;52.184;9.280;2023-04-29T07:03:06;27.50;33.00
15172;DHT22;7686;52.184;9.280;2023-04-29T07:05:34;27.50;33.00
15172;DHT22;7686;52.184;9.280;2023-04-29T07:08:00;27.50;33.00
15172;DHT22;7686;52.184;9.280;2023-04-29T07:10:27;27.50;33.00
15172;DHT22;7686;52.184;9.280;2023-04-29T07:12:54;27.50;33.00
15172;DHT22;7686;52.184;9.280;2023-04-29T07:15:20;27.50;33.00
15172;DHT22;7686;52.184;9.280;2023-04-29T07:17:47;27.50;33.10
15172;DHT22;7686;52.184;9.280;2023-04-29T07:20:14;27.50;33.10
15172;DHT22;7686;52.184;9.280;2023-04-29T07:22:40;27.50;33.10
15172;DHT22;7686;52.184;9.280;2023-04-29T07:25:07;27.50;33.10
15172;DHT22;7686;52.184;9.280;2023-04-29T07:27:34;27.50;33.10
15172;DHT22;7686;52.184;9.280;2023-04-29T07:30:02;27.50;33.10
15172;DHT22;7686;52.184;9.280;2023-04-29T07:32:29;27.60;33.20
15172;DHT22;7686;52.184;9.280;2023-04-29T07:34:57;27.50;33.10
15172;DHT22;7686;52.184;9.280;2023-04-29T07:37:24;27.50;33.10
15172;DHT22;7686;52.184;9.280;2023-04-29T07:39:51;27.50;33.10
15172;DHT22;7686;52.184;9.280;2023-04-29T07:42:18;27.50;33.10
15172;DHT22;7686;52.184;9.280;2023-04-29T07:44:44;27.50;33.00
15172;DHT22;7686;52.184;9.280;2023-04-29T07:47:11;27.50;33.10
15172;DHT22;7686;52.184;9.280;2023-04-29T07:49:38;27.50;33.10
15172;DHT22;7686;52.184;9.280;2023-04-29T07:52:05;27.60;33.20
15172;DHT22;7686;52.184;9.280;2023-04-29T07:54:35;27.50;33.10
15172;DHT22;7686;52.184;9.280;2023-04-29T07:57:03;27.60;33.20
15172;DHT22;7686;52.184;9.280;2023-04-29T07:59:30;27.60;33.20
15172;DHT22;7686;52.184;9.280;2023-04-29T08:01:57;27.60;33.10
15172;DHT22;7686;52.184;9.280;2023-04-29T08:04:24;27.60;33.20
15172;DHT22;7686;52.184;9.280;2023-04-29T08:06:51;27.60;33.20
15172;DHT22;7686;52.184;9.280;2023-04-29T08:09:18;27.60;33.20
15172;DHT22;7686;52.184;9.280;2023-04-29T08:11:44;27.60;33.30
15172;DHT22;7686;52.184;9.280;2023-04-29T08:14:11;27.60;33.20
15172;DHT22;7686;52.184;9.280;2023-04-29T08:16:38;27.70;33.30
15172;DHT22;7686;52.184;9.280;2023-04-29T08:19:04;27.70;33.30
15172;DHT22;7686;52.184;9.280;2023-04-29T08:21:31;27.70;33.30
15172;DHT22;7686;52.184;9.280;2023-04-29T08:23:58;27.70;33.20
15172;DHT22;7686;52.184;9.280;2023-04-29T08:26:24;27.70;33.20
15172;DHT22;7686;52.184;9.280;2023-04-29T08:28:52;27.70;33.10
15172;DHT22;7686;52.184;9.280;2023-04-29T08:31:19;27.80;33.20
15172;DHT22;7686;52.184;9.280;2023-04-29T08:33:47;27.80;33.10
15172;DHT22;7686;52.184;9.280;2023-04-29T08:36:13;27.80;33.10
15172;DHT22;7686;52.184;9.280;2023-04-29T08:38:40;27.80;33.10
15172;DHT22;7686;52.184;9.280;2023-04-29T08:41:07;27.90;33.20
15172;DHT22;7686;52.184;9.280;2023-04-29T08:43:37;27.90;33.20
15172;DHT22;7686;52.184;9.280;2023-04-29T08:46:06;27.90;33.20
15172;DHT22;7686;52.184;9.280;2023-04-29T08:48:33;27.90;33.90
15172;DHT22;7686;52.184;9.280;2023-04-29T08:51:01;27.90;33.20
15172;DHT22;7686;52.184;9.280;2023-04-29T08:53:29;28.00;33.20
15172;DHT22;7686;52.184;9.280;2023-04-29T08:55:59;28.00;33.20
15172;DHT22;7686;52.184;9.280;2023-04-29T08:58:30;28.00;33.10
15172;DHT22;7686;52.184;9.280;2023-04-29T09:00:59;28.00;33.10
15172;DHT22;7686;52.184;9.280;2023-04-29T09:03:33;28.10;33.10
15172;DHT22;7686;52.184;9.280;2023-04-29T09:06:04;28.10;33.00
15172;DHT22;7686;52.184;9.280;2023-04-29T09:08:31;28.10;33.00
15172;DHT22;7686;52.184;9.280;2023-04-29T09:10:59;28.10;33.00
15172;DHT22;7686;52.184;9.280;2023-04-29T09:13:30;28.10;33.00
15172;DHT22;7686;52.184;9.280;2023-04-29T09:15:57;28.10;32.90
15172;DHT22;7686;52.184;9.280;2023-04-29T09:23:51;28.30;33.00
15172;DHT22;7686;52.184;9.280;2023-04-29T09:26:19;28.20;32.80
15172;DHT22;7686;52.184;9.280;2023-04-29T09:28:46;28.30;32.90
15172;DHT22;7686;52.184;9.280;2023-04-29T09:31:13;28.30;32.90
15172;DHT22;7686;52.184;9.280;2023-04-29T09:33:54;28.50;33.00
15172;DHT22;7686;52.184;9.280;2023-04-29T09:39:05;28.40;32.80
15172;DHT22;7686;52.184;9.280;2023-04-29T09:41:38;28.40;32.80
15172;DHT22;7686;52.184;9.280;2023-04-29T09:44:06;28.20;32.60
15172;DHT22;7686;52.184;9.280;2023-04-29T09:46:34;28.40;32.80
15172;DHT22;7686;52.184;9.280;2023-04-29T09:49:02;28.40;32.70
15172;DHT22;7686;52.184;9.280;2023-04-29T09:51:32;28.40;32.70
15172;DHT22;7686;52.184;9.280;2023-04-29T09:53:59;28.40;32.80
15172;DHT22;7686;52.184;9.280;2023-04-29T09:56:27;28.50;32.80
15172;DHT22;7686;52.184;9.280;2023-04-29T09:59:06;28.40;32.80
15172;DHT22;7686;52.184;9.280;2023-04-29T10:01:34;28.50;32.70
15172;DHT22;7686;52.184;9.280;2023-04-29T10:04:02;28.40;32.70
15172;DHT22;7686;52.184;9.280;2023-04-29T10:06:29;28.50;32.70
15172;DHT22;7686;52.184;9.280;2023-04-29T10:08:56;28.50;32.70
15172;DHT22;7686;52.184;9.280;2023-04-29T10:11:23;28.50;32.80
15172;DHT22;7686;52.184;9.280;2023-04-29T10:13:50;28.50;32.80
15172;DHT22;7686;52.184;9.280;2023-04-29T10:16:30;28.50;32.70
15172;DHT22;7686;52.184;9.280;2023-04-29T10:19:00;28.50;32.70
15172;DHT22;7686;52.184;9.280;2023-04-29T10:21:30;28.50;32.60
15172;DHT22;7686;52.184;9.280;2023-04-29T10:23:58;28.50;32.80
15172;DHT22;7686;52.184;9.280;2023-04-29T10:26:27;28.50;32.70
15172;DHT22;7686;52.184;9.280;2023-04-29T10:28:55;28.50;32.70
15172;DHT22;7686;52.184;9.280;2023-04-29T10:31:25;28.50;32.70
15172;DHT22;7686;52.184;9.280;2023-04-29T10:33:56;28.50;32.70
15172;DHT22;7686;52.184;9.280;2023-04-29T10:36:24;28.50;32.80
15172;DHT22;7686;52.184;9.280;2023-04-29T10:38:57;28.50;32.80
15172;DHT22;7686;52.184;9.280;2023-04-29T10:41:33;28.40;32.80
15172;DHT22;7686;52.184;9.280;2023-04-29T10:44:02;28.50;32.80
15172;DHT22;7686;52.184;9.280;2023-04-29T10:46:30;28.40;32.80
15172;DHT22;7686;52.184;9.280;2023-04-29T10:49:00;28.40;33.00
15172;DHT22;7686;52.184;9.280;2023-04-29T10:52:01;28.50;33.10
15172;DHT22;7686;52.184;9.280;2023-04-29T10:54:28;28.40;33.10
15172;DHT22;7686;52.184;9.280;2023-04-29T10:56:55;28.50;33.40
15172;DHT22;7686;52.184;9.280;2023-04-29T11:02:11;28.60;33.70
15172;DHT22;7686;52.184;9.280;2023-04-29T11:05:07;28.70;33.70
15172;DHT22;7686;52.184;9.280;2023-04-29T11:07:35;28.70;33.70
15172;DHT22;7686;52.184;9.280;2023-04-29T11:10:02;28.80;33.80
15172;DHT22;7686;52.184;9.280;2023-04-29T11:12:29;28.90;33.90
15172;DHT22;7686;52.184;9.280;2023-04-29T11:14:57;29.00;33.70
15172;DHT22;7686;52.184;9.280;2023-04-29T11:17:34;29.00;33.50
15172;DHT22;7686;52.184;9.280;2023-04-29T11:20:03;29.20;33.80
15172;DHT22;7686;52.184;9.280;2023-04-29T11:22:30;29.10;33.90
15172;DHT22;7686;52.184;9.280;2023-04-29T11:25:06;29.30;33.70
15172;DHT22;7686;52.184;9.280;2023-04-29T11:27:40;29.40;33.50
15172;DHT22;7686;52.184;9.280;2023-04-29T11:30:08;29.50;33.30
15172;DHT22;7686;52.184;9.280;2023-04-29T11:32:37;29.50;33.20
15172;DHT22;7686;52.184;9.280;2023-04-29T11:35:16;29.60;33.20
15172;DHT22;7686;52.184;9.280;2023-04-29T11:37:44;29.70;33.00
15172;DHT22;7686;52.184;9.280;2023-04-29T11:40:12;29.80;33.10
15172;DHT22;7686;52.184;9.280;2023-04-29T11:42:41;29.80;33.00
15172;DHT22;7686;52.184;9.280;2023-04-29T11:45:09;29.90;32.90
15172;DHT22;7686;52.184;9.280;2023-04-29T11:47:36;29.90;32.80
15172;DHT22;7686;52.184;9.280;2023-04-29T11:50:07;30.00;32.80
15172;DHT22;7686;52.184;9.280;2023-04-29T11:52:36;30.00;32.80
15172;DHT22;7686;52.184;9.280;2023-04-29T11:55:04;30.00;32.70
15172;DHT22;7686;52.184;9.280;2023-04-29T11:57:31;30.10;32.60
15172;DHT22;7686;52.184;9.280;2023-04-29T11:59:58;30.10;32.70
15172;DHT22;7686;52.184;9.280;2023-04-29T12:02:29;30.10;32.50
15172;DHT22;7686;52.184;9.280;2023-04-29T12:04:58;30.20;32.40
15172;DHT22;7686;52.184;9.280;2023-04-29T12:07:29;30.20;32.40
15172;DHT22;7686;52.184;9.280;2023-04-29T12:09:55;30.20;32.40
15172;DHT22;7686;52.184;9.280;2023-04-29T12:12:23;30.20;32.30
15172;DHT22;7686;52.184;9.280;2023-04-29T12:14:50;30.20;32.30
15172;DHT22;7686;52.184;9.280;2023-04-29T12:17:18;30.20;32.20
15172;DHT22;7686;52.184;9.280;2023-04-29T12:19:45;30.30;32.20
15172;DHT22;7686;52.184;9.280;2023-04-29T12:22:12;30.20;32.20
15172;DHT22;7686;52.184;9.280;2023-04-29T12:24:39;30.30;32.20
15172;DHT22;7686;52.184;9.280;2023-04-29T12:27:09;30.30;32.20
15172;DHT22;7686;52.184;9.280;2023-04-29T12:29:37;30.30;32.20
15172;DHT22;7686;52.184;9.280;2023-04-29T12:32:04;30.30;32.20
15172;DHT22;7686;52.184;9.280;2023-04-29T12:34:32;30.30;32.20
15172;DHT22;7686;52.184;9.280;2023-04-29T12:36:59;30.30;32.10
15172;DHT22;7686;52.184;9.280;2023-04-29T12:39:26;30.30;32.20
15172;DHT22;7686;52.184;9.280;2023-04-29T12:41:56;30.30;32.20
15172;DHT22;7686;52.184;9.280;2023-04-29T12:44:24;30.30;32.90
15172;DHT22;7686;52.184;9.280;2023-04-29T12:46:51;30.30;32.30
15172;DHT22;7686;52.184;9.280;2023-04-29T12:49:24;30.30;32.30
15172;DHT22;7686;52.184;9.280;2023-04-29T12:51:51;30.30;32.30
15172;DHT22;7686;52.184;9.280;2023-04-29T12:54:17;30.40;32.40
15172;DHT22;7686;52.184;9.280;2023-04-29T12:56:44;30.40;32.40
15172;DHT22;7686;52.184;9.280;2023-04-29T12:59:13;30.40;32.40
15172;DHT22;7686;52.184;9.280;2023-04-29T13:01:40;30.40;32.40
15172;DHT22;7686;52.184;9.280;2023-04-29T13:04:07;30.40;32.20
15172;DHT22;7686;52.184;9.280;2023-04-29T13:06:34;30.40;31.90
15172;DHT22;7686;52.184;9.280;2023-04-29T13:09:07;30.40;31.80
15172;DHT22;7686;52.184;9.280;2023-04-29T13:11:43;30.40;31.70
15172;DHT22;7686;52.184;9.280;2023-04-29T13:14:10;30.50;31.70
15172;DHT22;7686;52.184;9.280;2023-04-29T13:16:37;30.40;31.60
15172;DHT22;7686;52.184;9.280;2023-04-29T13:19:04;30.40;31.70
15172;DHT22;7686;52.184;9.280;2023-04-29T13:21:50;30.40;31.70
15172;DHT22;7686;52.184;9.280;2023-04-29T13:24:17;30.40;31.70
15172;DHT22;7686;52.184;9.280;2023-04-29T13:26:45;30.30;31.60
15172;DHT22;7686;52.184;9.280;2023-04-29T13:29:16;30.30;31.70
15172;DHT22;7686;52.184;9.280;2023-04-29T13:31:42;30.20;31.70
15172;DHT22;7686;52.184;9.280;2023-04-29T13:34:09;30.20;31.70
15172;DHT22;7686;52.184;9.280;2023-04-29T13:36:36;30.10;31.80
15172;DHT22;7686;52.184;9.280;2023-04-29T13:39:03;30.10;31.80
15172;DHT22;7686;52.184;9.280;2023-04-29T13:41:30;30.10;31.80
15172;DHT22;7686;52.184;9.280;2023-04-29T13:44:00;30.00;31.90
15172;DHT22;7686;52.184;9.280;2023-04-29T13:46:28;30.00;31.90
15172;DHT22;7686;52.184;9.280;2023-04-29T13:48:57;29.90;31.90
15172;DHT22;7686;52.184;9.280;2023-04-29T13:51:44;29.90;31.90
15172;DHT22;7686;52.184;9.280;2023-04-29T13:54:30;29.80;31.90
15172;DHT22;7686;52.184;9.280;2023-04-29T13:57:00;29.80;31.90
15172;DHT22;7686;52.184;9.280;2023-04-29T13:59:49;29.80;32.00
15172;DHT22;7686;52.184;9.280;2023-04-29T14:02:18;29.70;32.00
15172;DHT22;7686;52.184;9.280;2023-04-29T14:04:48;29.70;32.00
15172;DHT22;7686;52.184;9.280;2023-04-29T14:07:15;29.60;32.00
15172;DHT22;7686;52.184;9.280;2023-04-29T14:09:42;29.60;32.10
15172;DHT22;7686;52.184;9.280;2023-04-29T14:12:08;29.60;32.10
15172;DHT22;7686;52.184;9.280;2023-04-29T14:14:36;29.60;32.20
15172;DHT22;7686;52.184;9.280;2023-04-29T14:17:02;29.60;32.20
15172;DHT22;7686;52.184;9.280;2023-04-29T14:19:29;29.50;32.20
15172;DHT22;7686;52.184;9.280;2023-04-29T14:21:55;29.50;32.20
15172;DHT22;7686;52.184;9.280;2023-04-29T14:24:22;29.50;32.30
15172;DHT22;7686;52.184;9.280;2023-04-29T14:26:49;29.40;32.20
15172;DHT22;7686;52.184;9.280;2023-04-29T14:29:15;29.40;32.30
15172;DHT22;7686;52.184;9.280;2023-04-29T14:31:42;29.40;32.40
15172;DHT22;7686;52.184;9.280;2023-04-29T14:34:09;29.40;32.40
15172;DHT22;7686;52.184;9.280;2023-04-29T14:36:36;29.40;32.40
15172;DHT22;7686;52.184;9.280;2023-04-29T14:39:02;29.40;32.40
15172;DHT22;7686;52.184;9.280;2023-04-29T14:41:29;29.30;32.40
15172;DHT22;7686;52.184;9.280;2023-04-29T14:43:56;29.30;32.40
15172;DHT22;7686;52.184;9.280;2023-04-29T14:46:22;29.30;32.50
15172;DHT22;7686;52.184;9.280;2023-04-29T14:48:50;29.30;32.50
15172;DHT22;7686;52.184;9.280;2023-04-29T14:51:17;29.30;32.50
15172;DHT22;7686;52.184;9.280;2023-04-29T14:53:43;29.30;32.50
15172;DHT22;7686;52.184;9.280;2023-04-29T14:56:10;29.30;32.60
15172;DHT22;7686;52.184;9.280;2023-04-29T14:58:37;29.30;32.60
15172;DHT22;7686;52.184;9.280;2023-04-29T15:01:03;29.30;32.60
15172;DHT22;7686;52.184;9.280;2023-04-29T15:03:30;29.30;32.60
15172;DHT22;7686;52.184;9.280;2023-04-29T15:05:57;29.30;32.60
15172;DHT22;7686;52.184;9.280;2023-04-29T15:08:24;29.30;32.60
15172;DHT22;7686;52.184;9.280;2023-04-29T15:10:50;29.30;32.60
15172;DHT22;7686;52.184;9.280;2023-04-29T15:13:17;29.30;32.60
15172;DHT22;7686;52.184;9.280;2023-04-29T15:15:44;29.30;33.30
15172;DHT22;7686;52.184;9.280;2023-04-29T15:18:11;29.40;32.70
15172;DHT22;7686;52.184;9.280;2023-04-29T15:20:37;29.30;32.60
15172;DHT22;7686;52.184;9.280;2023-04-29T15:23:04;29.20;32.60
15172;DHT22;7686;52.184;9.280;2023-04-29T15:25:32;29.30;32.70
15172;DHT22;7686;52.184;9.280;2023-04-29T15:28:02;29.20;32.60
15172;DHT22;7686;52.184;9.280;2023-04-29T15:30:30;29.20;32.70
15172;DHT22;7686;52.184;9.280;2023-04-29T15:32:56;29.20;32.70
15172;DHT22;7686;52.184;9.280;2023-04-29T15:35:25;29.20;32.70
15172;DHT22;7686;52.184;9.280;2023-04-29T15:37:51;29.20;32.70
15172;DHT22;7686;52.184;9.280;2023-04-29T15:40:18;29.20;32.70
15172;DHT22;7686;52.184;9.280;2023-04-29T15:42:45;29.20;32.70
15172;DHT22;7686;52.184;9.280;2023-04-29T15:45:12;29.20;32.80
15172;DHT22;7686;52.184;9.280;2023-04-29T15:47:39;29.20;32.70
15172;DHT22;7686;52.184;9.280;2023-04-29T15:50:06;29.20;32.80
15172;DHT22;7686;52.184;9.280;2023-04-29T15:52:33;29.20;32.70
15172;DHT22;7686;52.184;9.280;2023-04-29T15:54:59;29.30;32.70
15172;DHT22;7686;52.184;9.280;2023-04-29T15:57:26;29.20;32.70
15172;DHT22;7686;52.184;9.280;2023-04-29T15:59:52;29.30;32.70
15172;DHT22;7686;52.184;9.280;2023-04-29T16:02:19;29.30;32.70
15172;DHT22;7686;52.184;9.280;2023-04-29T16:04:47;29.30;32.60
15172;DHT22;7686;52.184;9.280;2023-04-29T16:07:13;29.20;32.60
15172;DHT22;7686;52.184;9.280;2023-04-29T16:09:40;29.30;32.70